Time;durP1;ratioP1;P1;durP2;ratioP2;P2;SDS_P1;SDS_P2;PMS_P1;PMS_P2;Temp;Humidity;BMP_temperature;BMP_pressure;BME280_temperature;BME280_humidity;BME280_pressure;Samples;Min_cycle;Max_cycle;Signal;HPM_P1;HPM_P2
2022/06/12 00:00:27;;;;;;;;;;;20.20;76.50;;;;;;6161844;23;19935;-96
2022/06/12 00:02:53;;;;;;;;;;;20.10;77.50;;;;;;6188607;23;19938;-96
2022/06/12 00:05:19;;;;;;;;;;;20.00;76.70;;;;;;6188540;23;19948;-96
2022/06/12 00:07:45;;;;;;;;;;;20.00;76.40;;;;;;6182068;23;19941;-96
2022/06/12 00:10:11;;;;;;;;;;;19.90;76.80;;;;;;6188655;23;19937;-96
2022/06/12 00:12:37;;;;;;;;;;;19.90;77.10;;;;;;6188511;23;19992;-96
2022/06/12 00:15:04;;;;;;;;;;;19.80;77.60;;;;;;6187762;23;19960;-96
2022/06/12 00:17:30;;;;;;;;;;;19.80;78.10;;;;;;6160850;23;20300;-96
2022/06/12 00:19:55;;;;;;;;;;;19.80;78.00;;;;;;6188205;23;19941;-96
2022/06/12 00:22:21;;;;;;;;;;;19.80;77.50;;;;;;6188744;23;20356;-96
2022/06/12 00:24:47;;;;;;;;;;;19.80;77.00;;;;;;6188005;23;19954;-96
2022/06/12 00:27:12;;;;;;;;;;;19.70;77.40;;;;;;6187366;23;19968;-96
2022/06/12 00:29:39;;;;;;;;;;;19.70;77.30;;;;;;6188184;23;19969;-96
2022/06/12 00:32:05;;;;;;;;;;;19.60;78.00;;;;;;6188086;23;19939;-96
2022/06/12 00:34:35;;;;;;;;;;;19.70;78.40;;;;;;6187999;23;19982;-96
2022/06/12 00:37:00;;;;;;;;;;;19.70;78.20;;;;;;6188279;23;19960;-96
2022/06/12 00:39:27;;;;;;;;;;;19.80;78.10;;;;;;6188305;23;20359;-96
2022/06/12 00:41:54;;;;;;;;;;;19.80;78.60;;;;;;6187335;23;19938;-96
2022/06/12 00:44:21;;;;;;;;;;;19.70;78.70;;;;;;6162478;23;19949;-96
2022/06/12 00:46:49;;;;;;;;;;;19.80;79.40;;;;;;6187995;23;19969;-96
2022/06/12 00:49:26;;;;;;;;;;;19.80;78.90;;;;;;6161884;23;19960;-96
2022/06/12 00:51:54;;;;;;;;;;;19.80;78.80;;;;;;6162252;23;19941;-96
2022/06/12 00:54:20;;;;;;;;;;;19.80;78.90;;;;;;6188285;23;19942;-96
2022/06/12 00:56:49;;;;;;;;;;;19.70;78.90;;;;;;6188135;23;20263;-96
2022/06/12 00:59:33;;;;;;;;;;;19.50;79.90;;;;;;6187924;23;19993;-96
2022/06/12 01:01:59;;;;;;;;;;;19.30;80.00;;;;;;6186253;23;20022;-96
2022/06/12 01:07:11;;;;;;;;;;;19.10;81.10;;;;;;6181237;23;19986;-96
2022/06/12 01:09:40;;;;;;;;;;;19.10;81.10;;;;;;6185532;23;19971;-96
2022/06/12 01:12:08;;;;;;;;;;;19.20;81.50;;;;;;6187031;23;19968;-96
2022/06/12 01:14:42;;;;;;;;;;;19.20;81.70;;;;;;6186645;23;20277;-96
2022/06/12 01:17:08;;;;;;;;;;;19.20;81.70;;;;;;6187191;23;19942;-96
2022/06/12 01:19:50;;;;;;;;;;;19.30;81.60;;;;;;6160754;23;20239;-96
2022/06/12 01:22:26;;;;;;;;;;;19.20;80.80;;;;;;6187489;23;20037;-96
2022/06/12 01:25:10;;;;;;;;;;;19.10;80.20;;;;;;6186768;23;19956;-96
2022/06/12 01:27:44;;;;;;;;;;;19.10;80.50;;;;;;6186573;23;19974;-96
2022/06/12 01:30:23;;;;;;;;;;;19.00;81.00;;;;;;6186406;23;20377;-96
2022/06/12 01:33:00;;;;;;;;;;;19.00;80.90;;;;;;6186510;23;20018;-96
2022/06/12 01:35:38;;;;;;;;;;;19.00;80.50;;;;;;6186969;23;19959;-96
2022/06/12 01:38:22;;;;;;;;;;;18.90;80.90;;;;;;6187095;23;19939;-96
2022/06/12 01:40:48;;;;;;;;;;;18.90;80.60;;;;;;6187232;23;19965;-96
2022/06/12 01:43:31;;;;;;;;;;;18.90;81.00;;;;;;6186464;23;20352;-96
2022/06/12 01:46:15;;;;;;;;;;;19.00;81.10;;;;;;6186145;23;19977;-96
2022/06/12 01:48:53;;;;;;;;;;;19.00;81.00;;;;;;6186583;23;20017;-96
2022/06/12 01:51:24;;;;;;;;;;;18.90;81.40;;;;;;6186536;23;20005;-96
2022/06/12 01:54:03;;;;;;;;;;;18.90;81.70;;;;;;6186444;23;19959;-96
2022/06/12 01:56:32;;;;;;;;;;;18.90;81.80;;;;;;6186166;23;19955;-96
2022/06/12 01:59:05;;;;;;;;;;;18.80;82.10;;;;;;6186722;23;19935;-96
2022/06/12 02:01:37;;;;;;;;;;;18.80;82.20;;;;;;6186604;23;19994;-96
2022/06/12 02:04:08;;;;;;;;;;;18.90;82.40;;;;;;6160172;23;20002;-96
2022/06/12 02:06:40;;;;;;;;;;;18.90;82.40;;;;;;6183990;23;19942;-96
2022/06/12 02:09:26;;;;;;;;;;;18.90;82.30;;;;;;6182024;23;19945;-96
2022/06/12 02:14:42;;;;;;;;;;;19.00;81.60;;;;;;6187177;23;20285;-96
2022/06/12 02:17:12;;;;;;;;;;;19.00;81.50;;;;;;6161298;23;19986;-96
2022/06/12 02:19:39;;;;;;;;;;;19.00;81.80;;;;;;6189133;23;19939;-96
2022/06/12 02:22:07;;;;;;;;;;;19.00;81.80;;;;;;6161068;23;19946;-96
2022/06/12 02:24:38;;;;;;;;;;;19.00;81.70;;;;;;6188240;23;19993;-96
2022/06/12 02:27:15;;;;;;;;;;;19.00;81.90;;;;;;6187276;23;19968;-96
2022/06/12 02:29:45;;;;;;;;;;;18.80;82.00;;;;;;6186591;23;19934;-96
2022/06/12 02:32:15;;;;;;;;;;;18.80;82.30;;;;;;6186730;23;19932;-96
2022/06/12 02:34:45;;;;;;;;;;;18.80;82.20;;;;;;6186754;23;20487;-96
2022/06/12 02:37:15;;;;;;;;;;;18.80;82.30;;;;;;6186820;23;19932;-96
2022/06/12 02:39:43;;;;;;;;;;;18.80;82.70;;;;;;6160267;23;19941;-96
2022/06/12 02:42:14;;;;;;;;;;;18.80;82.80;;;;;;6186345;23;19971;-96
2022/06/12 02:44:49;;;;;;;;;;;18.80;83.00;;;;;;6160068;23;19935;-96
2022/06/12 02:47:20;;;;;;;;;;;18.80;82.70;;;;;;6186786;23;20259;-96
2022/06/12 02:49:47;;;;;;;;;;;18.70;82.60;;;;;;6186329;23;19941;-96
2022/06/12 02:52:21;;;;;;;;;;;18.60;82.60;;;;;;6186223;23;20411;-96
2022/06/12 02:54:46;;;;;;;;;;;18.50;82.10;;;;;;6185325;23;19959;-96
2022/06/12 02:57:12;;;;;;;;;;;18.40;82.10;;;;;;6186351;23;20260;-96
2022/06/12 02:59:56;;;;;;;;;;;18.30;82.50;;;;;;6159645;23;19947;-96
2022/06/12 03:02:25;;;;;;;;;;;18.30;83.00;;;;;;6185579;23;20016;-96
2022/06/12 03:04:56;;;;;;;;;;;18.30;83.50;;;;;;6185436;23;19985;-96
2022/06/12 03:07:23;;;;;;;;;;;18.30;83.30;;;;;;6179493;23;19940;-96
2022/06/12 03:09:48;;;;;;;;;;;18.30;83.50;;;;;;6185111;23;20362;-96
2022/06/12 03:12:14;;;;;;;;;;;18.30;83.70;;;;;;6185725;23;19940;-96
2022/06/12 03:14:40;;;;;;;;;;;18.30;83.80;;;;;;6185634;23;19963;-96
2022/06/12 03:17:05;;;;;;;;;;;18.30;84.00;;;;;;6158820;23;20014;-96
2022/06/12 03:19:33;;;;;;;;;;;18.40;83.80;;;;;;6185509;23;19967;-96
2022/06/12 03:22:18;;;;;;;;;;;18.40;83.70;;;;;;6185611;23;19959;-96
2022/06/12 03:24:57;;;;;;;;;;;18.30;83.20;;;;;;6185634;23;19939;-96
2022/06/12 03:27:34;;;;;;;;;;;18.30;83.20;;;;;;6185499;23;19973;-96
2022/06/12 03:30:04;;;;;;;;;;;18.30;83.50;;;;;;6185338;23;19938;-96
2022/06/12 03:32:33;;;;;;;;;;;18.20;83.70;;;;;;6158852;23;20394;-96
2022/06/12 03:35:13;;;;;;;;;;;18.10;83.90;;;;;;6184951;23;19956;-96
2022/06/12 03:37:58;;;;;;;;;;;18.20;84.30;;;;;;6185549;23;19936;-96
2022/06/12 03:40:30;;;;;;;;;;;18.20;84.50;;;;;;6185450;23;19932;-96
2022/06/12 03:42:59;;;;;;;;;;;18.10;84.80;;;;;;6185341;23;20380;-96
2022/06/12 03:45:28;;;;;;;;;;;18.10;84.90;;;;;;6185520;23;19937;-96
2022/06/12 03:47:54;;;;;;;;;;;18.20;85.20;;;;;;6185735;23;19939;-96
2022/06/12 03:50:25;;;;;;;;;;;18.10;85.30;;;;;;6185733;23;19933;-96
2022/06/12 03:52:57;;;;;;;;;;;18.10;85.40;;;;;;6186334;23;20263;-96
2022/06/12 03:57:50;;;;;;;;;;;18.00;86.00;;;;;;6187338;23;19959;-96
2022/06/12 03:58:10;;;;;;;;;;;18.00;86.00;;;;;;6189088;23;19944;-96
2022/06/12 04:00:38;;;;;;;;;;;17.90;85.40;;;;;;6190006;23;19938;-96
2022/06/12 04:03:06;;;;;;;;;;;17.80;85.70;;;;;;6187371;23;19934;-96
2022/06/12 04:05:39;;;;;;;;;;;17.80;85.80;;;;;;6188326;23;19936;-96
2022/06/12 04:08:06;;;;;;;;;;;17.80;86.20;;;;;;6181759;23;19964;-96
2022/06/12 04:10:34;;;;;;;;;;;17.80;86.30;;;;;;6161874;23;19938;-96
2022/06/12 04:13:00;;;;;;;;;;;17.80;86.40;;;;;;6162521;23;19946;-96
2022/06/12 04:15:31;;;;;;;;;;;17.90;86.40;;;;;;6187999;23;20035;-96
2022/06/12 04:17:57;;;;;;;;;;;18.00;86.30;;;;;;6187491;23;19946;-96
2022/06/12 04:20:25;;;;;;;;;;;18.20;86.30;;;;;;6188552;23;19939;-96
2022/06/12 04:23:02;;;;;;;;;;;18.30;86.00;;;;;;6188345;23;19941;-96
2022/06/12 04:25:45;;;;;;;;;;;18.30;85.90;;;;;;6188029;23;19966;-96
2022/06/12 04:28:29;;;;;;;;;;;18.30;85.60;;;;;;6186913;23;20035;-96
2022/06/12 04:30:56;;;;;;;;;;;18.30;85.40;;;;;;6187641;23;19942;-96
2022/06/12 04:33:44;;;;;;;;;;;18.30;85.70;;;;;;6187335;23;19942;-96
2022/06/12 04:36:10;;;;;;;;;;;18.40;85.60;;;;;;6161014;23;20452;-96
2022/06/12 04:38:36;;;;;;;;;;;18.40;85.40;;;;;;6188013;23;19941;-96
2022/06/12 04:41:02;;;;;;;;;;;18.50;85.20;;;;;;6187722;23;19931;-96
2022/06/12 04:43:28;;;;;;;;;;;18.50;85.20;;;;;;6161241;23;20387;-96
2022/06/12 04:45:54;;;;;;;;;;;18.60;85.10;;;;;;6161614;23;20096;-96
2022/06/12 04:48:39;;;;;;;;;;;18.80;84.80;;;;;;6188141;23;19932;-96
2022/06/12 04:51:06;;;;;;;;;;;18.90;84.60;;;;;;6186369;23;20043;-96
2022/06/12 04:53:32;;;;;;;;;;;18.70;84.70;;;;;;6187413;23;19934;-96
2022/06/12 04:55:58;;;;;;;;;;;18.80;84.40;;;;;;6187495;23;19953;-96
2022/06/12 04:58:23;;;;;;;;;;;18.80;84.30;;;;;;6188093;23;19939;-96
2022/06/12 05:00:49;;;;;;;;;;;18.80;84.20;;;;;;6189244;23;19938;-96
2022/06/12 05:03:14;;;;;;;;;;;18.90;84.30;;;;;;6162203;23;19943;-96
2022/06/12 05:05:41;;;;;;;;;;;19.10;84.10;;;;;;6188690;23;20247;-96
2022/06/12 05:08:07;;;;;;;;;;;19.10;83.40;;;;;;6181562;23;19996;-96
2022/06/12 05:10:33;;;;;;;;;;;19.20;84.60;;;;;;6188154;23;19958;-96
2022/06/12 05:12:59;;;;;;;;;;;19.30;85.00;;;;;;6189358;23;20350;-96
2022/06/12 05:15:25;;;;;;;;;;;19.30;85.40;;;;;;6188675;23;19965;-96
2022/06/12 05:17:50;;;;;;;;;;;19.40;85.60;;;;;;6189730;23;19973;-96
2022/06/12 05:20:21;;;;;;;;;;;19.60;85.10;;;;;;6191443;23;19933;-96
2022/06/12 05:22:47;;;;;;;;;;;19.80;83.50;;;;;;6193871;23;19932;-96
2022/06/12 05:25:13;;;;;;;;;;;19.90;82.90;;;;;;6167048;23;19950;-96
2022/06/12 05:27:40;;;;;;;;;;;20.10;82.40;;;;;;6189897;23;19972;-96
2022/06/12 05:30:06;;;;;;;;;;;20.20;81.80;;;;;;6164385;23;19947;-96
2022/06/12 05:32:32;;;;;;;;;;;20.30;80.90;;;;;;6189585;23;19945;-96
2022/06/12 05:34:58;;;;;;;;;;;20.30;79.90;;;;;;6164268;23;20004;-96
2022/06/12 05:37:24;;;;;;;;;;;20.40;79.50;;;;;;6191776;23;20267;-96
2022/06/12 05:39:49;;;;;;;;;;;20.60;79.40;;;;;;6193095;23;19939;-96
2022/06/12 05:42:15;;;;;;;;;;;20.70;79.70;;;;;;6167954;23;20281;-96
2022/06/12 05:44:41;;;;;;;;;;;20.80;79.70;;;;;;6194788;23;19939;-96
2022/06/12 05:47:07;;;;;;;;;;;20.80;80.00;;;;;;6169609;23;19936;-96
2022/06/12 05:49:33;;;;;;;;;;;20.90;79.80;;;;;;6195104;23;19943;-96
2022/06/12 05:51:59;;;;;;;;;;;21.00;78.90;;;;;;6193012;23;19944;-96
2022/06/12 05:54:25;;;;;;;;;;;21.10;78.30;;;;;;6192567;23;20259;-96
2022/06/12 05:56:51;;;;;;;;;;;21.20;78.00;;;;;;6194067;23;19943;-96
2022/06/12 05:59:16;;;;;;;;;;;21.30;78.20;;;;;;6168696;23;19943;-96
2022/06/12 06:01:43;;;;;;;;;;;21.40;77.20;;;;;;6193180;23;19937;-96
2022/06/12 06:04:09;;;;;;;;;;;21.50;75.70;;;;;;6193409;23;19949;-96
2022/06/12 06:06:43;;;;;;;;;;;21.60;75.00;;;;;;6164965;23;19980;-96
2022/06/12 06:09:09;;;;;;;;;;;21.70;76.20;;;;;;6190342;23;19938;-96
2022/06/12 06:11:34;;;;;;;;;;;21.80;76.10;;;;;;6169620;23;19945;-96
2022/06/12 06:14:00;;;;;;;;;;;21.90;75.50;;;;;;6169043;23;19940;-96
2022/06/12 06:16:26;;;;;;;;;;;22.00;75.40;;;;;;6168708;23;19964;-96
2022/06/12 06:18:53;;;;;;;;;;;22.10;74.80;;;;;;6194679;23;19953;-96
2022/06/12 06:21:19;;;;;;;;;;;22.10;74.40;;;;;;6194239;23;19938;-96
2022/06/12 06:23:44;;;;;;;;;;;22.30;73.80;;;;;;6167110;23;19951;-96
2022/06/12 06:26:10;;;;;;;;;;;22.30;72.90;;;;;;6193251;23;19962;-96
2022/06/12 06:28:36;;;;;;;;;;;22.40;73.00;;;;;;6165504;23;19948;-96
2022/06/12 06:31:02;;;;;;;;;;;22.60;72.20;;;;;;6165611;23;19944;-96
2022/06/12 06:33:28;;;;;;;;;;;22.70;72.10;;;;;;6139930;23;19986;-96
2022/06/12 06:35:54;;;;;;;;;;;22.80;71.60;;;;;;6140972;23;20022;-96
2022/06/12 06:38:20;;;;;;;;;;;22.90;71.20;;;;;;6140642;23;19997;-96
2022/06/12 06:40:46;;;;;;;;;;;23.00;70.60;;;;;;6167484;23;19938;-96
2022/06/12 06:43:12;;;;;;;;;;;23.10;69.80;;;;;;6161331;23;19981;-96
2022/06/12 06:48:23;;;;;;;;;;;23.30;69.50;;;;;;6162626;23;19940;-96
2022/06/12 06:50:49;;;;;;;;;;;23.30;68.90;;;;;;6164582;23;19936;-96
2022/06/12 06:53:15;;;;;;;;;;;23.30;68.80;;;;;;6166907;23;19935;-96
2022/06/12 06:55:41;;;;;;;;;;;23.40;69.00;;;;;;6140623;23;20305;-96
2022/06/12 06:58:15;;;;;;;;;;;23.50;69.80;;;;;;6166241;23;19940;-96
2022/06/12 07:00:41;;;;;;;;;;;23.50;68.20;;;;;;6137943;23;19944;-96
2022/06/12 07:03:07;;;;;;;;;;;23.60;66.70;;;;;;6165810;23;19987;-96
2022/06/12 07:05:33;;;;;;;;;;;23.70;65.70;;;;;;6139579;23;19945;-96
2022/06/12 07:08:00;;;;;;;;;;;23.80;66.90;;;;;;6134198;23;19968;-96
2022/06/12 07:10:26;;;;;;;;;;;23.90;67.00;;;;;;6166824;23;20000;-96
2022/06/12 07:12:52;;;;;;;;;;;24.00;65.00;;;;;;6166896;23;19949;-96
2022/06/12 07:15:19;;;;;;;;;;;24.00;64.30;;;;;;6165649;23;19956;-97
2022/06/12 07:17:45;;;;;;;;;;;24.10;62.10;;;;;;6164570;23;19985;-96
2022/06/12 07:20:13;;;;;;;;;;;24.20;62.00;;;;;;6166529;23;19957;-96
2022/06/12 07:22:39;;;;;;;;;;;24.20;62.20;;;;;;6165363;23;19941;-96
2022/06/12 07:25:05;;;;;;;;;;;24.30;61.50;;;;;;6166250;23;19941;-96
2022/06/12 07:27:31;;;;;;;;;;;24.30;61.50;;;;;;6195700;23;19968;-96
2022/06/12 07:29:56;;;;;;;;;;;24.30;61.10;;;;;;6171357;23;19947;-96
2022/06/12 07:32:22;;;;;;;;;;;24.40;61.00;;;;;;6197085;23;19940;-96
2022/06/12 07:34:48;;;;;;;;;;;24.50;61.50;;;;;;6171202;23;19990;-96
2022/06/12 07:37:14;;;;;;;;;;;24.60;62.60;;;;;;6196263;23;19941;-96
2022/06/12 07:39:40;;;;;;;;;;;24.70;60.60;;;;;;6197960;23;19937;-96
2022/06/12 07:42:06;;;;;;;;;;;24.80;61.20;;;;;;6197091;23;19972;-96
2022/06/12 07:44:33;;;;;;;;;;;24.90;59.80;;;;;;6197771;23;19949;-96
2022/06/12 07:47:02;;;;;;;;;;;25.00;60.20;;;;;;6174388;23;19968;-96
2022/06/12 07:49:29;;;;;;;;;;;25.10;59.40;;;;;;6173155;23;19937;-96
2022/06/12 07:51:55;;;;;;;;;;;25.20;58.10;;;;;;6175084;23;19938;-96
2022/06/12 07:54:21;;;;;;;;;;;25.30;57.10;;;;;;6201500;23;19960;-96
2022/06/12 07:56:47;;;;;;;;;;;25.40;60.10;;;;;;6175121;23;19938;-96
2022/06/12 07:59:13;;;;;;;;;;;25.50;59.00;;;;;;6168361;23;19947;-96
2022/06/12 08:01:38;;;;;;;;;;;25.50;61.00;;;;;;6194536;23;19939;-96
2022/06/12 08:04:05;;;;;;;;;;;25.60;60.20;;;;;;6193238;23;20308;-96
2022/06/12 08:06:31;;;;;;;;;;;25.70;62.80;;;;;;6165309;23;19937;-96
2022/06/12 08:08:57;;;;;;;;;;;25.80;56.80;;;;;;6163058;23;19959;-96
2022/06/12 08:11:24;;;;;;;;;;;25.80;57.60;;;;;;6168499;23;19941;-96
2022/06/12 08:13:50;;;;;;;;;;;25.80;58.70;;;;;;6193800;23;19932;-96
2022/06/12 08:16:16;;;;;;;;;;;25.80;57.20;;;;;;6166908;23;19968;-96
2022/06/12 08:18:41;;;;;;;;;;;25.80;56.10;;;;;;6195612;23;20247;-96
2022/06/12 08:21:09;;;;;;;;;;;25.90;53.60;;;;;;6195245;23;20335;-96
2022/06/12 08:23:54;;;;;;;;;;;25.90;54.00;;;;;;6195886;23;19951;-96
2022/06/12 08:26:27;;;;;;;;;;;26.00;54.40;;;;;;6170621;23;19951;-96
2022/06/12 08:28:56;;;;;;;;;;;26.10;54.70;;;;;;6172108;23;19984;-96
2022/06/12 08:31:27;;;;;;;;;;;26.20;53.80;;;;;;6195583;23;19931;-96
2022/06/12 08:33:57;;;;;;;;;;;26.30;56.90;;;;;;6195944;23;19961;-96
2022/06/12 08:36:23;;;;;;;;;;;26.30;54.70;;;;;;6195883;23;19959;-96
2022/06/12 08:38:48;;;;;;;;;;;26.30;53.60;;;;;;6193668;23;19960;-96
2022/06/12 08:41:33;;;;;;;;;;;26.40;52.20;;;;;;6195838;23;19940;-96
2022/06/12 08:43:58;;;;;;;;;;;26.40;55.00;;;;;;6193625;23;19938;-96
2022/06/12 08:46:29;;;;;;;;;;;26.60;53.00;;;;;;6193396;23;19948;-96
2022/06/12 08:49:01;;;;;;;;;;;26.60;52.40;;;;;;6196342;23;20039;-96
2022/06/12 08:51:31;;;;;;;;;;;26.70;54.80;;;;;;6197131;23;19943;-97
2022/06/12 08:54:11;;;;;;;;;;;26.70;53.40;;;;;;6194793;23;19936;-96
2022/06/12 08:56:48;;;;;;;;;;;26.80;51.60;;;;;;6168049;23;19963;-96
2022/06/12 08:59:19;;;;;;;;;;;26.90;50.50;;;;;;6196168;23;20026;-96
2022/06/12 09:01:45;;;;;;;;;;;27.00;51.60;;;;;;6197876;23;19980;-96
2022/06/12 09:04:13;;;;;;;;;;;27.10;51.30;;;;;;6196564;23;19931;-96
2022/06/12 09:06:47;;;;;;;;;;;27.10;51.00;;;;;;6192713;23;20013;-96
2022/06/12 09:09:19;;;;;;;;;;;27.10;49.20;;;;;;6170595;23;19948;-96
2022/06/12 09:11:47;;;;;;;;;;;27.20;50.30;;;;;;6165299;23;19953;-96
2022/06/12 09:14:20;;;;;;;;;;;27.20;48.90;;;;;;6166516;23;20487;-96
2022/06/12 09:16:49;;;;;;;;;;;27.30;51.10;;;;;;6192274;23;19965;-96
2022/06/12 09:19:21;;;;;;;;;;;27.40;52.20;;;;;;6190899;23;20010;-96
2022/06/12 09:22:01;;;;;;;;;;;27.30;49.10;;;;;;6191175;23;19959;-96
2022/06/12 09:24:47;;;;;;;;;;;27.40;52.50;;;;;;6166647;23;19983;-96
2022/06/12 09:27:26;;;;;;;;;;;27.40;49.10;;;;;;6168737;23;20400;-96
2022/06/12 09:29:58;;;;;;;;;;;27.50;50.10;;;;;;6167904;23;19967;-96
2022/06/12 09:32:24;;;;;;;;;;;27.60;47.10;;;;;;6167873;23;19948;-96
2022/06/12 09:35:08;;;;;;;;;;;27.70;51.10;;;;;;6194747;23;20038;-96
2022/06/12 09:40:56;;;;;;;;;;;27.80;48.20;;;;;;6163869;23;19982;-96
2022/06/12 09:43:22;;;;;;;;;;;27.90;45.60;;;;;;6192281;23;19934;-96
2022/06/12 09:45:53;;;;;;;;;;;28.00;45.70;;;;;;6191922;23;19934;-96
2022/06/12 09:48:21;;;;;;;;;;;28.10;46.80;;;;;;6164643;23;19947;-96
2022/06/12 09:50:47;;;;;;;;;;;28.20;47.90;;;;;;6191106;23;19989;-96
2022/06/12 09:53:31;;;;;;;;;;;28.20;41.10;;;;;;6194278;23;19951;-96
2022/06/12 09:56:00;;;;;;;;;;;28.20;43.00;;;;;;6191022;23;20044;-96
2022/06/12 09:58:29;;;;;;;;;;;28.30;44.70;;;;;;6190370;23;20040;-96
2022/06/12 10:00:56;;;;;;;;;;;28.30;45.00;;;;;;6191482;23;19935;-96
2022/06/12 10:03:29;;;;;;;;;;;28.40;43.70;;;;;;6193099;23;19986;-96
2022/06/12 10:05:58;;;;;;;;;;;28.50;44.20;;;;;;6167371;23;19986;-96
2022/06/12 10:08:31;;;;;;;;;;;28.50;41.00;;;;;;6188878;23;20011;-96
2022/06/12 10:11:09;;;;;;;;;;;28.50;42.00;;;;;;6193896;23;19931;-96
2022/06/12 10:13:37;;;;;;;;;;;28.60;43.80;;;;;;6192240;23;19932;-96
2022/06/12 10:16:10;;;;;;;;;;;28.50;45.20;;;;;;6194003;23;20442;-96
2022/06/12 10:18:39;;;;;;;;;;;28.60;44.30;;;;;;6170556;23;19943;-96
2022/06/12 10:21:08;;;;;;;;;;;28.50;41.40;;;;;;6200020;23;19941;-96
2022/06/12 10:23:34;;;;;;;;;;;28.70;42.00;;;;;;6195210;23;20385;-96
2022/06/12 10:26:01;;;;;;;;;;;28.80;44.80;;;;;;6191204;23;19955;-96
2022/06/12 10:28:31;;;;;;;;;;;28.90;41.80;;;;;;6190198;23;19972;-96
2022/06/12 10:31:00;;;;;;;;;;;28.80;42.00;;;;;;6190438;23;19945;-96
2022/06/12 10:33:33;;;;;;;;;;;28.80;43.80;;;;;;6190973;23;20014;-96
2022/06/12 10:36:00;;;;;;;;;;;29.00;42.80;;;;;;6164297;23;19962;-96
2022/06/12 10:38:27;;;;;;;;;;;29.00;42.80;;;;;;6192134;23;19962;-96
2022/06/12 10:40:58;;;;;;;;;;;29.00;42.70;;;;;;6165391;23;19946;-96
2022/06/12 10:43:35;;;;;;;;;;;29.10;41.50;;;;;;6192880;23;19945;-96
2022/06/12 10:46:16;;;;;;;;;;;29.10;41.80;;;;;;6167456;23;19996;-96
2022/06/12 10:48:42;;;;;;;;;;;29.20;42.00;;;;;;6192612;23;19962;-96
2022/06/12 10:51:21;;;;;;;;;;;29.20;40.70;;;;;;6192915;23;19943;-96
2022/06/12 10:53:55;;;;;;;;;;;29.30;43.00;;;;;;6192809;23;19942;-96
2022/06/12 10:56:31;;;;;;;;;;;29.40;43.20;;;;;;6167503;23;20036;-96
2022/06/12 10:59:15;;;;;;;;;;;29.60;44.10;;;;;;6194333;23;19938;-96
2022/06/12 11:01:46;;;;;;;;;;;29.70;44.90;;;;;;6192251;23;20368;-96
2022/06/12 11:04:12;;;;;;;;;;;29.80;44.50;;;;;;6194225;23;19978;-96
2022/06/12 11:06:48;;;;;;;;;;;29.90;44.50;;;;;;6189473;23;19941;-96
2022/06/12 11:09:14;;;;;;;;;;;29.90;45.50;;;;;;6190201;23;19939;-96
2022/06/12 11:11:45;;;;;;;;;;;30.00;41.80;;;;;;6193635;23;20266;-96
2022/06/12 11:14:24;;;;;;;;;;;30.00;41.10;;;;;;6189614;23;20241;-96
2022/06/12 11:17:02;;;;;;;;;;;30.00;42.00;;;;;;6168650;23;20453;-96
2022/06/12 11:19:46;;;;;;;;;;;30.20;39.70;;;;;;6198260;23;19951;-96
2022/06/12 11:22:24;;;;;;;;;;;30.40;40.80;;;;;;6173731;23;19938;-96
2022/06/12 11:25:08;;;;;;;;;;;30.70;38.50;;;;;;6198464;23;19941;-96
2022/06/12 11:27:45;;;;;;;;;;;30.90;38.50;;;;;;6201686;23;19993;-96
2022/06/12 11:30:11;;;;;;;;;;;31.20;42.30;;;;;;6178273;23;19971;-96
2022/06/12 11:32:49;;;;;;;;;;;31.40;41.20;;;;;;6178339;23;19941;-96
2022/06/12 11:35:32;;;;;;;;;;;31.50;40.60;;;;;;6174463;23;19957;-96
2022/06/12 11:37:57;;;;;;;;;;;31.50;43.30;;;;;;6176653;23;19946;-96
2022/06/12 11:40:24;;;;;;;;;;;31.60;38.20;;;;;;6177724;23;19943;-96
2022/06/12 11:43:00;;;;;;;;;;;31.70;38.50;;;;;;6204195;23;19985;-96
2022/06/12 11:45:41;;;;;;;;;;;31.70;39.70;;;;;;6205674;23;19940;-96
2022/06/12 11:48:07;;;;;;;;;;;31.70;39.30;;;;;;6180701;23;19934;-97
2022/06/12 11:50:51;;;;;;;;;;;31.70;39.40;;;;;;6200683;23;19932;-96
2022/06/12 11:53:36;;;;;;;;;;;31.40;38.80;;;;;;6174553;23;20344;-96
2022/06/12 11:56:21;;;;;;;;;;;31.30;36.90;;;;;;6175625;23;19957;-96
2022/06/12 11:58:46;;;;;;;;;;;31.50;39.30;;;;;;6174856;23;19945;-96
2022/06/12 12:01:15;;;;;;;;;;;31.50;39.70;;;;;;6202421;23;19956;-96
2022/06/12 12:03:51;;;;;;;;;;;31.70;37.30;;;;;;6175160;23;19942;-96
2022/06/12 12:06:26;;;;;;;;;;;31.70;38.30;;;;;;6198974;23;19938;-96
2022/06/12 12:09:00;;;;;;;;;;;31.60;38.50;;;;;;6195881;23;20427;-96
2022/06/12 12:11:38;;;;;;;;;;;31.50;36.80;;;;;;6199470;23;20384;-96
2022/06/12 12:14:06;;;;;;;;;;;31.80;35.10;;;;;;6204547;23;20424;-96
2022/06/12 12:16:38;;;;;;;;;;;32.30;35.60;;;;;;6180195;23;19967;-96
2022/06/12 12:19:06;;;;;;;;;;;32.60;37.40;;;;;;6183340;23;19940;-96
2022/06/12 12:21:45;;;;;;;;;;;33.30;33.90;;;;;;6182917;23;19945;-96
2022/06/12 12:24:21;;;;;;;;;;;33.60;35.00;;;;;;6184383;23;19943;-96
2022/06/12 12:26:50;;;;;;;;;;;34.20;34.50;;;;;;6210191;23;19977;-96
2022/06/12 12:29:24;;;;;;;;;;;34.70;35.00;;;;;;6183228;23;19923;-96
2022/06/12 12:32:00;;;;;;;;;;;35.00;32.30;;;;;;6211331;23;19952;-96
2022/06/12 12:34:29;;;;;;;;;;;35.50;30.20;;;;;;6160549;23;19940;-96
2022/06/12 12:42:26;;;;;;;;;;;35.10;32.50;;;;;;6206757;23;20024;-96
2022/06/12 12:44:52;;;;;;;;;;;35.30;30.10;;;;;;6206854;23;19939;-96
2022/06/12 12:47:19;;;;;;;;;;;35.20;32.70;;;;;;6204853;23;19936;-96
2022/06/12 12:49:44;;;;;;;;;;;34.80;33.40;;;;;;6199191;23;19942;-96
2022/06/12 12:52:14;;;;;;;;;;;33.80;32.50;;;;;;6199544;23;20011;-96
2022/06/12 12:54:51;;;;;;;;;;;33.60;33.60;;;;;;6203111;23;19965;-96
2022/06/12 12:57:37;;;;;;;;;;;34.00;34.00;;;;;;6178780;23;19950;-96
2022/06/12 13:00:04;;;;;;;;;;;34.50;32.50;;;;;;6180398;23;19936;-96
2022/06/12 13:02:32;;;;;;;;;;;35.10;31.30;;;;;;6178590;23;20342;-96
2022/06/12 13:05:19;;;;;;;;;;;35.10;30.20;;;;;;6181091;23;19943;-96
2022/06/12 13:07:51;;;;;;;;;;;35.50;30.20;;;;;;6178541;23;19937;-97
2022/06/12 13:10:39;;;;;;;;;;;36.10;33.00;;;;;;6180523;23;19939;-96
2022/06/12 13:13:17;;;;;;;;;;;35.70;31.40;;;;;;6180061;23;19984;-96
2022/06/12 13:16:09;;;;;;;;;;;35.20;30.70;;;;;;6176972;23;19968;-96
2022/06/12 13:18:55;;;;;;;;;;;35.20;32.10;;;;;;6199688;23;19975;-96
2022/06/12 13:21:27;;;;;;;;;;;36.00;31.70;;;;;;6177370;23;20003;-96
2022/06/12 13:23:59;;;;;;;;;;;36.30;29.20;;;;;;6177530;23;20019;-96
2022/06/12 13:26:25;;;;;;;;;;;36.40;30.70;;;;;;6179475;23;20378;-96
2022/06/12 13:28:56;;;;;;;;;;;36.80;29.00;;;;;;6178930;23;19932;-96
2022/06/12 13:31:22;;;;;;;;;;;37.10;29.40;;;;;;6207562;23;19935;-96
2022/06/12 13:33:57;;;;;;;;;;;38.10;27.80;;;;;;6182810;23;19964;-96
2022/06/12 13:36:36;;;;;;;;;;;38.50;26.70;;;;;;6208582;23;19954;-96
2022/06/12 13:39:06;;;;;;;;;;;38.90;26.50;;;;;;6178708;23;19942;-96
2022/06/12 13:41:37;;;;;;;;;;;38.10;25.70;;;;;;6205316;23;19977;-96
2022/06/12 13:44:22;;;;;;;;;;;38.40;27.60;;;;;;6179334;23;19941;-96
2022/06/12 13:46:55;;;;;;;;;;;38.40;27.10;;;;;;6176525;23;19938;-96
2022/06/12 13:49:30;;;;;;;;;;;37.70;29.10;;;;;;6179383;23;19946;-96
2022/06/12 13:52:07;;;;;;;;;;;38.40;27.30;;;;;;6181286;23;19940;-96
2022/06/12 13:54:38;;;;;;;;;;;38.80;27.80;;;;;;6180377;23;19949;-96
2022/06/12 13:57:12;;;;;;;;;;;39.20;25.30;;;;;;6181962;23;19982;-96
2022/06/12 13:59:46;;;;;;;;;;;39.60;25.90;;;;;;6178972;23;19946;-96
2022/06/12 14:02:25;;;;;;;;;;;38.90;24.90;;;;;;6207610;23;19937;-96
2022/06/12 14:05:12;;;;;;;;;;;39.10;24.60;;;;;;6184230;23;19936;-96
2022/06/12 14:07:40;;;;;;;;;;;39.60;24.80;;;;;;6209424;23;19962;-96
2022/06/12 14:10:13;;;;;;;;;;;39.70;27.80;;;;;;6181205;23;19943;-96
2022/06/12 14:12:39;;;;;;;;;;;38.90;27.60;;;;;;6204486;23;19940;-96
2022/06/12 14:15:24;;;;;;;;;;;38.20;26.80;;;;;;6179585;23;19988;-96
2022/06/12 14:17:59;;;;;;;;;;;37.80;27.40;;;;;;6205188;23;20052;-96
2022/06/12 14:20:26;;;;;;;;;;;37.60;26.90;;;;;;6203375;23;19938;-96
2022/06/12 14:22:54;;;;;;;;;;;36.90;28.80;;;;;;6179372;23;19937;-96
2022/06/12 14:25:31;;;;;;;;;;;36.90;29.70;;;;;;6205418;23;19932;-96
2022/06/12 14:28:25;;;;;;;;;;;37.60;28.60;;;;;;6190103;23;19984;-96
2022/06/12 14:31:11;;;;;;;;;;;38.70;28.50;;;;;;6178938;23;19946;-96
2022/06/12 14:33:55;;;;;;;;;;;39.60;25.80;;;;;;6180798;23;19983;-96
2022/06/12 14:36:31;;;;;;;;;;;40.20;25.10;;;;;;6177170;23;20011;-96
2022/06/12 14:39:08;;;;;;;;;;;40.30;24.40;;;;;;6175827;23;19942;-96
2022/06/12 14:41:34;;;;;;;;;;;39.70;26.90;;;;;;6175280;23;19946;-96
2022/06/12 14:44:03;;;;;;;;;;;39.10;26.10;;;;;;6174625;23;19946;-96
2022/06/12 14:46:29;;;;;;;;;;;39.40;25.80;;;;;;6175408;23;19946;-96
2022/06/12 14:48:55;;;;;;;;;;;39.40;25.30;;;;;;6177101;23;19934;-96
2022/06/12 14:51:21;;;;;;;;;;;39.70;25.80;;;;;;6174924;23;19948;-97
2022/06/12 14:53:48;;;;;;;;;;;39.20;26.40;;;;;;6175741;23;19943;-96